Time,TemperatureF,DewpointF,PressureIn,WindDirection,WindDirectionDegrees,WindSpeedMPH,WindSpeedGustMPH,Humidity,HourlyPrecipIn,Conditions,Clouds,dailyrainin,SoftwareType,DateUTC
2016-07-25 00:01:00,53.0,52.0,-100.00,WSW,246,1.0,5.0,99,-99.99,,,-99.99,,2016-07-25 07:01:00,
2016-07-25 00:05:00,53.0,52.0,-100.00,South,176,0.0,6.0,99,-99.99,,,-99.99,,2016-07-25 07:05:00,
2016-07-25 00:49:00,53.0,52.0,-100.00,South,176,0.0,6.0,99,-99.99,,,-99.99,,2016-07-25 07:49:00,
2016-07-25 00:56:00,53.0,52.0,-100.00,South,176,0.0,6.0,99,-99.99,,,-99.99,,2016-07-25 07:56:00,
2016-07-25 01:38:00,52.0,52.0,-100.00,SE,132,2.0,6.0,99,-99.99,,,-99.99,,2016-07-25 08:38:00,
2016-07-25 01:46:00,52.0,52.0,-100.00,SE,132,2.0,6.0,99,-99.99,,,-99.99,,2016-07-25 08:46:00,
2016-07-25 02:04:00,52.0,52.0,-100.00,SE,132,2.0,6.0,99,-99.99,,,-99.99,,2016-07-25 09:04:00,
2016-07-25 02:43:00,52.0,52.0,-100.00,SE,127,5.0,-999.0,100,-99.99,,,-99.99,,2016-07-25 09:43:00,
2016-07-25 02:53:00,52.0,52.0,-100.00,SE,127,5.0,-999.0,100,-99.99,,,-99.99,,2016-07-25 09:53:00,
2016-07-25 03:05:00,52.0,52.0,-100.00,SE,132,5.0,-999.0,100,-99.99,,,-99.99,,2016-07-25 10:05:00,
2016-07-25 03:43:00,52.0,52.0,-100.00,SE,132,5.0,-999.0,100,-99.99,,,-99.99,,2016-07-25 10:43:00,
2016-07-25 04:05:00,51.0,51.0,-100.00,ESE,118,5.0,-999.0,100,-99.99,,,-99.99,,2016-07-25 11:05:00,
2016-07-25 04:57:00,51.0,51.0,-100.00,ESE,118,5.0,-999.0,100,-99.99,,,-99.99,,2016-07-25 11:57:00,
2016-07-25 05:51:00,51.0,51.0,-100.00,SE,136,1.0,-999.0,100,-99.99,,,-99.99,,2016-07-25 12:51:00,
2016-07-25 07:36:00,51.0,51.0,-100.00,North,-9999,0.0,-999.0,100,-99.99,,,-99.99,,2016-07-25 14:36:00,
2016-07-25 07:49:00,51.0,51.0,-100.00,North,-9999,0.0,3.0,100,-99.99,,,-99.99,,2016-07-25 14:49:00,
2016-07-25 08:05:00,51.0,51.0,-100.00,SE,127,6.0,-999.0,100,-99.99,,,-99.99,,2016-07-25 15:05:00,
2016-07-25 08:55:00,51.0,51.0,-100.00,SE,127,6.0,-999.0,100,-99.99,,,-99.99,,2016-07-25 15:55:00,
2016-07-25 09:05:00,53.0,53.0,-100.00,SE,146,-999.9,-999.0,100,-99.99,,,-99.99,,2016-07-25 16:05:00,
2016-07-25 10:05:00,56.0,55.0,-100.00,ESE,110,8.0,-999.0,96,-99.99,,,-99.99,,2016-07-25 17:05:00,
2016-07-25 10:45:00,56.0,55.0,-100.00,ESE,110,-999.9,-999.0,96,-99.99,,,-99.99,,2016-07-25 17:45:00,
2016-07-25 11:05:00,60.0,56.0,-100.00,SE,131,8.0,14.0,88,-99.99,,,-99.99,,2016-07-25 18:05:00,
2016-07-25 11:40:00,60.0,56.0,-100.00,SE,131,8.0,14.0,88,-99.99,,,-99.99,,2016-07-25 18:40:00,
2016-07-25 11:50:00,60.0,56.0,-100.00,SE,131,8.0,14.0,88,-99.99,,,-99.99,,2016-07-25 18:50:00,
2016-07-25 12:00:00,60.0,56.0,-100.00,SE,131,8.0,14.0,88,-99.99,,,-99.99,,2016-07-25 19:00:00,
2016-07-25 12:41:00,63.0,58.0,-100.00,SSE,158,6.0,12.0,84,-99.99,,,-99.99,,2016-07-25 19:41:00,
2016-07-25 12:52:00,63.0,58.0,-100.00,SSE,158,6.0,12.0,84,-99.99,,,-99.99,,2016-07-25 19:52:00,
2016-07-25 12:59:00,63.0,58.0,-100.00,SSE,158,6.0,12.0,84,-99.99,,,-99.99,,2016-07-25 19:59:00,
2016-07-25 13:37:00,65.0,59.0,-100.00,SSE,157,9.0,14.0,81,-99.99,,,-99.99,,2016-07-25 20:37:00,
2016-07-25 13:46:00,65.0,59.0,-100.00,SSE,157,9.0,14.0,81,-99.99,,,-99.99,,2016-07-25 20:46:00,
2016-07-25 14:04:00,65.0,59.0,-100.00,SSE,157,9.0,-999.0,81,-99.99,,,-99.99,,2016-07-25 21:04:00,
2016-07-25 14:05:00,65.0,58.0,-100.00,SE,137,4.0,-999.0,80,-99.99,,,-99.99,,2016-07-25 21:05:00,
2016-07-25 14:53:00,65.0,58.0,-100.00,SE,137,4.0,-999.0,80,-99.99,,,-99.99,,2016-07-25 21:53:00,
2016-07-25 15:05:00,64.0,60.0,-100.00,West,265,2.0,-999.0,86,-99.99,,,-99.99,,2016-07-25 22:05:00,
2016-07-25 15:43:00,64.0,60.0,-100.00,West,265,-999.9,-999.0,86,-99.99,,,-99.99,,2016-07-25 22:43:00,
2016-07-25 16:05:00,60.0,56.0,-100.00,WSW,248,2.0,8.0,86,-99.99,,,-99.99,,2016-07-25 23:05:00,
2016-07-25 16:46:00,60.0,56.0,-100.00,WSW,248,2.0,-999.0,86,-99.99,,,-99.99,,2016-07-25 23:46:00,
2016-07-25 16:52:00,60.0,56.0,-100.00,WSW,248,2.0,8.0,86,-99.99,,,-99.99,,2016-07-25 23:52:00,
2016-07-25 17:05:00,59.0,56.0,-100.00,WSW,240,0.0,6.0,91,-99.99,,,-99.99,,2016-07-26 00:05:00,
2016-07-25 17:40:00,59.0,56.0,-100.00,WSW,240,0.0,-999.0,91,-99.99,,,-99.99,,2016-07-26 00:40:00,
2016-07-25 18:01:00,59.0,56.0,-100.00,WSW,240,0.0,6.0,91,-99.99,,,-99.99,,2016-07-26 01:01:00,
2016-07-25 18:05:00,57.0,55.0,-100.00,SW,230,0.0,4.0,94,-99.99,,,-99.99,,2016-07-26 01:05:00,
2016-07-25 18:41:00,57.0,55.0,-100.00,SW,230,0.0,4.0,94,-99.99,,,-99.99,,2016-07-26 01:41:00,
2016-07-25 18:49:00,57.0,55.0,-100.00,SW,230,0.0,4.0,94,-99.99,,,-99.99,,2016-07-26 01:49:00,
2016-07-25 19:35:00,55.0,53.0,-100.00,SW,225,0.0,-999.0,95,-99.99,,,-99.99,,2016-07-26 02:35:00,
2016-07-25 19:47:00,55.0,53.0,-100.00,SW,225,0.0,3.0,95,-99.99,,,-99.99,,2016-07-26 02:47:00,
2016-07-25 20:04:00,55.0,53.0,-100.00,SW,225,0.0,3.0,95,-99.99,,,-99.99,,2016-07-26 03:04:00,
2016-07-25 20:43:00,54.0,54.0,-100.00,North,-9999,0.0,-999.0,100,-99.99,,,-99.99,,2016-07-26 03:43:00,
2016-07-25 20:53:00,54.0,54.0,-100.00,North,-9999,0.0,-999.0,100,-99.99,,,-99.99,,2016-07-26 03:53:00,